Aviation Digital Data Service (ADDS)

Output produced by METARs form (1430 UTC 28 July 2016)
found at http://www.aviationweather.gov/adds/metars/
 
KDFW 281137Z 2812/2918 19008KT P6SM SCT150 
     FM281400 19010KT P6SM VCSH SCT050 BKN150 
     FM282200 17007KT P6SM SCT060 BKN120